Time;durP1;ratioP1;P1;durP2;ratioP2;P2;SDS_P1;SDS_P2;PMS_P1;PMS_P2;Temp;Humidity;BMP_temperature;BMP_pressure;BME280_temperature;BME280_humidity;BME280_pressure;Samples;Min_cycle;Max_cycle;Signal;HPM_P1;HPM_P2
2023/05/31 00:00:17;;;;;;;10.18;3.90;;;10.90;99.90;;;;;;5135084;27;20068;-60
2023/05/31 00:02:43;;;;;;;10.32;3.63;;;10.90;99.90;;;;;;5134617;27;20041;-59
2023/05/31 00:05:09;;;;;;;8.25;3.47;;;10.90;99.90;;;;;;5134965;27;20035;-58
2023/05/31 00:07:35;;;;;;;7.35;3.30;;;10.90;99.90;;;;;;5134737;27;20027;-59
2023/05/31 00:10:00;;;;;;;11.82;4.25;;;10.80;99.90;;;;;;5135150;27;20042;-59
2023/05/31 00:12:26;;;;;;;11.23;3.67;;;10.80;99.90;;;;;;5134344;27;20039;-59
2023/05/31 00:14:52;;;;;;;7.43;3.53;;;10.80;99.90;;;;;;5134829;27;20078;-60
2023/05/31 00:17:17;;;;;;;8.10;3.78;;;10.70;99.90;;;;;;5134506;27;20570;-59
2023/05/31 00:19:43;;;;;;;10.68;3.85;;;10.70;99.90;;;;;;5114967;27;20140;-58
2023/05/31 00:22:10;;;;;;;8.13;3.75;;;10.70;99.90;;;;;;5133972;27;20485;-59
2023/05/31 00:24:36;;;;;;;11.05;3.85;;;10.60;99.90;;;;;;5134136;27;20045;-61
2023/05/31 00:27:02;;;;;;;7.53;3.60;;;10.60;99.90;;;;;;5134095;27;20130;-60
2023/05/31 00:29:28;;;;;;;8.55;3.42;;;10.50;99.90;;;;;;5134581;27;20227;-59
2023/05/31 00:31:54;;;;;;;9.45;3.85;;;10.50;99.90;;;;;;5134453;27;20224;-59
2023/05/31 00:34:20;;;;;;;11.43;3.75;;;10.60;99.90;;;;;;5134319;27;20501;-58
2023/05/31 00:36:45;;;;;;;7.05;3.85;;;10.60;99.90;;;;;;5134120;27;20065;-59
2023/05/31 00:39:11;;;;;;;7.65;3.85;;;10.50;99.90;;;;;;5134380;27;20043;-60
2023/05/31 00:41:37;;;;;;;10.65;4.25;;;10.50;99.90;;;;;;5134297;27;20423;-60
2023/05/31 00:44:02;;;;;;;9.55;3.85;;;10.50;99.90;;;;;;5098630;27;20065;-59
2023/05/31 00:46:32;;;;;;;9.40;3.90;;;10.40;99.90;;;;;;5133975;27;20039;-60
2023/05/31 00:48:57;;;;;;;10.45;4.30;;;10.40;99.90;;;;;;5133750;27;20444;-60
2023/05/31 00:51:27;;;;;;;11.57;3.85;;;10.40;99.90;;;;;;5113916;27;20127;-60
2023/05/31 00:53:53;;;;;;;7.85;4.07;;;10.40;99.90;;;;;;5133467;27;20054;-61
2023/05/31 00:56:21;;;;;;;10.20;3.92;;;10.40;99.90;;;;;;5133601;27;20111;-60
2023/05/31 00:58:48;;;;;;;9.85;3.90;;;10.40;99.90;;;;;;5134095;27;20035;-59
2023/05/31 01:01:17;;;;;;;8.60;3.67;;;10.40;99.90;;;;;;5133483;27;20478;-59
2023/05/31 01:03:43;;;;;;;12.27;4.40;;;10.40;99.90;;;;;;5132891;27;20055;-59
2023/05/31 01:06:10;;;;;;;9.10;4.03;;;10.30;99.90;;;;;;5133032;27;20060;-59
2023/05/31 01:08:37;;;;;;;11.05;4.00;;;10.30;99.90;;;;;;5133729;27;20382;-59
2023/05/31 01:11:12;;;;;;;12.45;3.83;;;10.30;99.90;;;;;;5133497;27;20039;-59
2023/05/31 01:13:47;;;;;;;9.60;5.45;;;10.30;99.90;;;;;;5133574;27;20059;-59
2023/05/31 01:16:25;;;;;;;9.88;4.43;;;10.30;99.90;;;;;;5133530;27;20027;-59
2023/05/31 01:19:00;;;;;;;10.32;5.15;;;10.30;99.90;;;;;;5133250;27;20039;-59
2023/05/31 01:21:37;;;;;;;9.48;5.38;;;10.30;99.90;;;;;;5132957;27;20039;-60
2023/05/31 01:24:22;;;;;;;11.10;3.90;;;10.30;99.90;;;;;;5133297;27;20031;-59
2023/05/31 01:26:49;;;;;;;8.27;3.97;;;10.20;99.90;;;;;;5133057;27;20047;-58
2023/05/31 01:29:21;;;;;;;10.25;6.40;;;10.20;99.90;;;;;;5133261;27;20084;-59
2023/05/31 01:31:48;;;;;;;10.35;4.00;;;10.20;99.90;;;;;;5114952;27;20501;-59
2023/05/31 01:34:14;;;;;;;9.95;4.40;;;10.70;99.90;;;;;;5132907;27;20038;-60
2023/05/31 01:36:39;;;;;;;13.35;4.57;;;10.20;99.90;;;;;;5133268;27;20039;-58
2023/05/31 01:39:07;;;;;;;11.80;4.38;;;10.20;99.90;;;;;;5114194;27;20023;-59
2023/05/31 01:41:37;;;;;;;14.35;4.93;;;10.10;99.90;;;;;;5133123;27;20039;-60
2023/05/31 01:44:04;;;;;;;9.30;4.40;;;10.20;99.90;;;;;;5133023;27;20035;-59
2023/05/31 01:46:30;;;;;;;11.52;5.60;;;10.10;99.90;;;;;;5133118;27;20359;-57
2023/05/31 01:48:56;;;;;;;8.57;4.70;;;10.10;99.90;;;;;;5132360;27;20046;-61
2023/05/31 01:51:23;;;;;;;11.63;4.53;;;10.10;99.90;;;;;;5132095;27;20039;-59
2023/05/31 01:53:49;;;;;;;12.15;4.43;;;10.10;99.90;;;;;;5132441;27;20130;-59
2023/05/31 01:56:15;;;;;;;10.25;5.18;;;10.10;99.90;;;;;;5132595;27;20039;-58
2023/05/31 01:58:48;;;;;;;8.70;4.50;;;10.10;99.90;;;;;;5114255;27;20426;-59
2023/05/31 02:01:16;;;;;;;12.10;4.78;;;10.00;99.90;;;;;;5114082;27;20043;-58
2023/05/31 02:03:42;;;;;;;11.77;7.00;;;10.00;99.90;;;;;;5131668;27;20083;-60
2023/05/31 02:06:08;;;;;;;8.43;4.18;;;10.00;99.90;;;;;;5131984;27;20027;-60
2023/05/31 02:08:33;;;;;;;11.48;4.88;;;10.00;99.90;;;;;;5130629;27;20065;-59
2023/05/31 02:10:59;;;;;;;12.70;4.55;;;10.00;99.90;;;;;;5132188;27;20043;-60
2023/05/31 02:13:27;;;;;;;11.02;4.47;;;9.90;99.90;;;;;;5132061;27;20024;-60
2023/05/31 02:15:57;;;;;;;10.68;4.68;;;9.90;99.90;;;;;;5131782;27;20088;-59
2023/05/31 02:18:26;;;;;;;11.65;4.68;;;9.90;99.90;;;;;;5131014;27;20042;-59
2023/05/31 02:20:52;;;;;;;10.00;4.80;;;9.90;99.90;;;;;;5132226;27;20050;-58
2023/05/31 02:23:19;;;;;;;10.13;4.60;;;9.90;99.90;;;;;;5131576;27;20043;-59
2023/05/31 02:25:49;;;;;;;10.15;4.97;;;9.80;99.90;;;;;;5131897;27;20035;-58
2023/05/31 02:28:15;;;;;;;10.18;5.32;;;9.80;99.90;;;;;;5131802;27;20516;-59
2023/05/31 02:30:41;;;;;;;10.90;4.93;;;9.80;99.90;;;;;;5131897;27;20082;-59
2023/05/31 02:33:08;;;;;;;11.45;5.20;;;9.80;99.90;;;;;;5113829;27;20039;-58
2023/05/31 02:35:33;;;;;;;13.77;5.03;;;9.70;99.90;;;;;;5131746;27;20115;-58
2023/05/31 02:37:59;;;;;;;9.63;4.97;;;9.80;99.90;;;;;;5132065;27;20378;-58
2023/05/31 02:40:25;;;;;;;11.45;5.40;;;9.70;99.90;;;;;;5132035;27;20035;-59
2023/05/31 02:42:51;;;;;;;11.52;7.15;;;9.70;99.90;;;;;;5132066;27;20054;-59
2023/05/31 02:45:17;;;;;;;9.70;5.07;;;9.70;99.90;;;;;;5131591;27;20470;-59
2023/05/31 02:47:43;;;;;;;12.95;4.93;;;9.70;99.90;;;;;;5113442;28;20125;-57
2023/05/31 02:50:10;;;;;;;14.25;7.20;;;9.60;99.90;;;;;;5131786;27;20039;-58
2023/05/31 02:52:38;;;;;;;10.82;4.95;;;9.60;99.90;;;;;;5131343;27;20042;-60
2023/05/31 02:55:05;;;;;;;11.05;5.18;;;9.60;99.90;;;;;;5131605;27;20096;-58
2023/05/31 02:57:31;;;;;;;12.85;5.35;;;9.60;99.90;;;;;;5131689;27;20599;-60
2023/05/31 03:00:11;;;;;;;12.35;5.30;;;9.60;99.90;;;;;;5131649;28;20121;-60
2023/05/31 03:02:38;;;;;;;10.88;4.78;;;9.50;99.90;;;;;;5131481;28;20111;-58
2023/05/31 03:05:04;;;;;;;12.05;5.10;;;9.60;99.90;;;;;;5131220;28;20524;-60
2023/05/31 03:07:30;;;;;;;12.80;5.00;;;9.60;99.90;;;;;;5130913;28;20363;-58
2023/05/31 03:09:56;;;;;;;12.90;7.55;;;9.60;99.90;;;;;;5130581;28;20072;-60
2023/05/31 03:12:25;;;;;;;12.55;5.43;;;9.60;99.90;;;;;;5130993;28;20492;-59
2023/05/31 03:14:50;;;;;;;13.25;5.72;;;9.50;99.90;;;;;;5111814;28;20039;-58
2023/05/31 03:17:16;;;;;;;13.55;7.63;;;9.50;99.90;;;;;;5130090;28;20386;-58
2023/05/31 03:19:42;;;;;;;13.25;5.22;;;9.50;99.90;;;;;;5131751;28;20160;-59
2023/05/31 03:22:07;;;;;;;9.77;5.53;;;9.50;99.90;;;;;;5131057;28;20035;-59
2023/05/31 03:24:33;;;;;;;11.27;5.50;;;9.50;99.90;;;;;;5131465;28;20045;-59
2023/05/31 03:27:00;;;;;;;11.32;4.85;;;9.40;99.90;;;;;;5113110;28;20038;-59
2023/05/31 03:29:26;;;;;;;13.20;5.90;;;9.50;99.90;;;;;;5134598;27;20038;-59
2023/05/31 03:31:51;;;;;;;11.40;5.50;;;9.40;99.90;;;;;;5135328;27;20039;-59
2023/05/31 03:34:17;;;;;;;15.85;7.82;;;9.40;99.90;;;;;;5135701;27;20118;-59
2023/05/31 03:36:43;;;;;;;13.43;5.68;;;9.40;99.90;;;;;;5135232;27;20038;-59
2023/05/31 03:39:10;;;;;;;13.18;5.55;;;9.50;99.90;;;;;;5135637;27;20035;-57
2023/05/31 03:41:36;;;;;;;15.23;8.40;;;9.40;99.90;;;;;;5116723;27;20035;-59
2023/05/31 03:44:01;;;;;;;12.65;6.18;;;9.40;99.90;;;;;;5115871;27;20046;-59
2023/05/31 03:46:27;;;;;;;14.07;5.95;;;9.40;99.90;;;;;;5134951;27;20042;-59
2023/05/31 03:48:53;;;;;;;11.25;5.70;;;9.40;99.90;;;;;;5135295;27;20061;-59
2023/05/31 03:51:19;;;;;;;12.93;5.40;;;9.40;99.90;;;;;;5134505;27;20047;-59
2023/05/31 03:53:45;;;;;;;15.57;6.15;;;9.30;99.90;;;;;;5116558;27;20047;-59
2023/05/31 03:56:10;;;;;;;15.35;8.95;;;9.40;99.90;;;;;;5116386;27;20270;-59
2023/05/31 03:58:36;;;;;;;13.15;6.68;;;9.40;99.90;;;;;;5135307;27;20038;-59
2023/05/31 04:01:02;;;;;;;13.07;5.65;;;9.50;99.90;;;;;;5116544;27;20042;-58
2023/05/31 04:03:28;;;;;;;14.60;6.03;;;9.40;99.90;;;;;;5134791;27;20035;-59
2023/05/31 04:05:54;;;;;;;14.20;6.20;;;9.40;99.90;;;;;;5134601;27;20054;-58
2023/05/31 04:08:20;;;;;;;12.10;6.05;;;9.50;99.90;;;;;;5134989;27;20039;-59
2023/05/31 04:10:45;;;;;;;13.70;6.03;;;9.50;99.90;;;;;;5134481;27;20058;-58
2023/05/31 04:13:11;;;;;;;13.98;9.13;;;9.50;99.90;;;;;;5134451;27;20035;-59
2023/05/31 04:15:37;;;;;;;15.23;8.73;;;9.60;99.90;;;;;;5134566;27;20035;-60
2023/05/31 04:18:03;;;;;;;15.98;6.25;;;9.60;99.90;;;;;;5134345;27;20042;-58
2023/05/31 04:20:28;;;;;;;12.88;6.20;;;9.70;99.90;;;;;;5134560;27;20138;-57
2023/05/31 04:22:54;;;;;;;14.13;6.13;;;9.60;99.90;;;;;;5115955;27;20581;-59
2023/05/31 04:25:20;;;;;;;19.10;9.45;;;9.60;99.90;;;;;;5116016;27;20482;-59
2023/05/31 04:27:47;;;;;;;16.88;6.18;;;9.60;99.90;;;;;;5134309;27;20072;-58
2023/05/31 04:30:13;;;;;;;15.45;6.32;;;9.70;99.90;;;;;;5134685;27;20547;-60
2023/05/31 04:32:40;;;;;;;17.38;9.43;;;9.80;99.90;;;;;;5134219;27;20047;-58
2023/05/31 04:35:08;;;;;;;17.83;6.53;;;9.80;99.90;;;;;;5134805;27;20114;-59
2023/05/31 04:37:35;;;;;;;20.48;6.47;;;9.90;99.90;;;;;;5098585;27;20754;-59
2023/05/31 04:40:02;;;;;;;15.48;6.97;;;9.90;99.90;;;;;;5133259;27;20039;-59
2023/05/31 04:42:28;;;;;;;14.65;6.63;;;9.90;99.90;;;;;;5116091;27;20458;-58
2023/05/31 04:44:57;;;;;;;20.90;7.10;;;10.00;99.90;;;;;;5134154;27;20071;-58
2023/05/31 04:47:33;;;;;;;12.63;7.07;;;10.00;99.90;;;;;;5133978;27;20043;-59
2023/05/31 04:50:00;;;;;;;18.30;7.10;;;10.00;99.90;;;;;;5134086;27;20373;-58
2023/05/31 04:52:31;;;;;;;18.75;7.18;;;10.00;99.90;;;;;;5133233;27;20074;-58
2023/05/31 04:54:59;;;;;;;19.13;6.75;;;10.10;99.90;;;;;;5133601;27;20088;-59
2023/05/31 04:57:28;;;;;;;14.25;7.25;;;10.10;99.90;;;;;;5133132;27;20039;-60
2023/05/31 04:59:57;;;;;;;17.52;7.40;;;10.20;99.90;;;;;;5133590;27;20043;-58
2023/05/31 05:02:24;;;;;;;16.27;7.05;;;10.30;99.90;;;;;;5133628;27;20027;-59
2023/05/31 05:04:49;;;;;;;20.17;7.35;;;10.40;99.90;;;;;;5133590;27;20091;-58
2023/05/31 05:07:16;;;;;;;15.88;7.18;;;10.40;99.90;;;;;;5133536;27;20045;-58
2023/05/31 05:09:42;;;;;;;14.55;6.50;;;10.40;99.90;;;;;;5133356;27;20086;-59
2023/05/31 05:12:09;;;;;;;22.65;8.45;;;10.50;99.90;;;;;;5132963;27;20095;-59
2023/05/31 05:14:34;;;;;;;21.58;8.02;;;10.50;99.90;;;;;;5133593;27;20023;-59
2023/05/31 05:17:00;;;;;;;24.27;7.90;;;10.60;99.90;;;;;;5133287;27;20520;-59
2023/05/31 05:19:26;;;;;;;17.33;8.00;;;10.70;99.90;;;;;;5133308;27;20083;-59
2023/05/31 05:21:51;;;;;;;18.45;8.35;;;10.70;99.90;;;;;;5132668;27;20043;-58
2023/05/31 05:24:17;;;;;;;19.23;8.27;;;10.80;99.90;;;;;;5133460;27;20107;-59
2023/05/31 05:26:44;;;;;;;16.05;8.27;;;10.80;99.90;;;;;;5133000;27;20034;-60
2023/05/31 05:29:10;;;;;;;18.58;10.88;;;10.80;99.90;;;;;;5132827;27;20035;-59
2023/05/31 05:31:36;;;;;;;22.58;7.85;;;10.90;99.90;;;;;;5131876;27;20073;-59
2023/05/31 05:34:01;;;;;;;17.75;8.15;;;11.00;99.90;;;;;;5132334;27;20442;-60
2023/05/31 05:36:27;;;;;;;20.15;9.23;;;11.10;99.90;;;;;;5113701;27;20035;-59
2023/05/31 05:38:53;;;;;;;19.17;8.50;;;11.10;99.90;;;;;;5132096;27;20031;-58
2023/05/31 05:41:19;;;;;;;19.27;11.52;;;11.20;99.90;;;;;;5132712;27;20031;-58
2023/05/31 05:43:44;;;;;;;20.85;8.88;;;11.30;99.90;;;;;;5132658;27;20091;-57
2023/05/31 05:46:10;;;;;;;19.25;9.18;;;11.40;99.90;;;;;;5131397;27;20114;-59
2023/05/31 05:48:36;;;;;;;20.50;9.48;;;11.40;99.90;;;;;;5131145;27;20039;-58
2023/05/31 05:51:03;;;;;;;21.45;9.75;;;11.50;99.90;;;;;;5113949;27;20051;-59
2023/05/31 05:53:29;;;;;;;23.35;9.77;;;11.60;99.90;;;;;;5132467;27;20050;-60
2023/05/31 05:55:55;;;;;;;20.80;9.52;;;11.60;99.90;;;;;;5132384;27;20039;-59
2023/05/31 05:58:21;;;;;;;20.20;9.02;;;11.60;99.90;;;;;;5132703;27;20039;-59
2023/05/31 06:00:49;;;;;;;23.20;9.10;;;11.70;99.90;;;;;;5132708;27;20043;-60
2023/05/31 06:03:15;;;;;;;17.98;9.05;;;11.70;99.90;;;;;;5132499;27;20065;-59
2023/05/31 06:05:42;;;;;;;19.88;8.90;;;11.80;99.90;;;;;;5113314;27;20466;-58
2023/05/31 06:08:11;;;;;;;19.38;8.63;;;11.90;99.90;;;;;;5128089;27;20053;-58
2023/05/31 06:10:37;;;;;;;21.40;9.10;;;11.90;99.90;;;;;;5132586;27;20031;-59
2023/05/31 06:13:04;;;;;;;18.00;8.75;;;12.00;99.90;;;;;;5128546;27;20027;-58
2023/05/31 06:15:30;;;;;;;17.23;8.05;;;12.20;99.90;;;;;;5127456;27;20043;-57
2023/05/31 06:17:56;;;;;;;21.45;8.98;;;12.20;99.90;;;;;;5123004;27;20039;-60
2023/05/31 06:20:21;;;;;;;16.73;8.10;;;12.30;99.90;;;;;;5121041;27;20039;-60
2023/05/31 06:22:49;;;;;;;18.70;7.75;;;12.40;99.90;;;;;;5122221;27;20096;-59
2023/05/31 06:25:16;;;;;;;17.23;8.30;;;12.50;99.90;;;;;;5122523;27;20031;-58
2023/05/31 06:27:42;;;;;;;17.73;8.63;;;12.50;99.90;;;;;;5111394;27;20083;-59
2023/05/31 06:30:09;;;;;;;17.23;8.18;;;12.60;99.90;;;;;;5121415;27;20054;-58
2023/05/31 06:32:35;;;;;;;16.90;8.00;;;12.70;99.90;;;;;;5122510;27;20027;-59
2023/05/31 06:35:01;;;;;;;15.45;8.88;;;12.80;99.90;;;;;;5123098;27;20034;-59
2023/05/31 06:37:27;;;;;;;15.73;7.10;;;12.80;99.90;;;;;;5123108;27;20474;-59
2023/05/31 06:39:54;;;;;;;17.70;7.38;;;12.90;99.90;;;;;;5122675;27;20122;-57
2023/05/31 06:42:21;;;;;;;15.35;7.35;;;12.90;99.90;;;;;;5122711;27;20069;-59
2023/05/31 06:44:47;;;;;;;14.90;7.32;;;13.00;99.90;;;;;;5122776;27;20043;-57
2023/05/31 06:47:13;;;;;;;13.75;6.93;;;13.00;99.90;;;;;;5111817;27;20038;-59
2023/05/31 06:49:39;;;;;;;12.63;8.13;;;13.20;99.90;;;;;;5112384;27;20485;-59
2023/05/31 06:52:06;;;;;;;15.20;7.07;;;13.30;99.90;;;;;;5121194;27;20055;-60
2023/05/31 06:54:35;;;;;;;16.52;8.38;;;13.30;99.90;;;;;;5122285;27;20056;-59
2023/05/31 06:57:02;;;;;;;14.05;6.78;;;13.40;99.90;;;;;;5122017;27;20452;-58
2023/05/31 06:59:28;;;;;;;14.85;6.93;;;13.50;99.90;;;;;;5122452;28;20080;-60
2023/05/31 07:01:54;;;;;;;15.55;7.15;;;13.60;99.90;;;;;;5120283;27;20106;-59
2023/05/31 07:04:20;;;;;;;15.20;6.70;;;13.70;99.90;;;;;;5109839;28;20043;-59
2023/05/31 07:06:46;;;;;;;12.43;6.80;;;13.70;99.90;;;;;;5121987;28;20027;-60
2023/05/31 07:09:12;;;;;;;15.60;6.95;;;13.80;99.90;;;;;;5122392;28;20359;-59
2023/05/31 07:11:41;;;;;;;15.23;6.97;;;13.90;99.90;;;;;;5122105;27;20475;-59
2023/05/31 07:14:07;;;;;;;15.77;6.97;;;14.00;99.90;;;;;;5129337;28;20043;-59
2023/05/31 07:16:33;;;;;;;13.32;6.60;;;14.10;99.90;;;;;;5130003;28;20027;-60
2023/05/31 07:18:59;;;;;;;17.27;6.80;;;14.10;99.90;;;;;;5129689;28;20031;-59
2023/05/31 07:21:24;;;;;;;13.90;6.63;;;14.20;99.90;;;;;;5128295;28;20390;-60
2023/05/31 07:23:51;;;;;;;15.43;6.60;;;14.30;99.90;;;;;;5131133;28;20042;-58
2023/05/31 07:26:17;;;;;;;13.32;6.72;;;14.40;99.90;;;;;;5131386;28;20470;-59
2023/05/31 07:28:44;;;;;;;15.32;6.97;;;14.40;99.90;;;;;;5131190;28;20042;-58
2023/05/31 07:31:10;;;;;;;13.55;7.22;;;14.50;99.90;;;;;;5131466;28;20035;-59
2023/05/31 07:33:36;;;;;;;14.88;6.88;;;14.60;99.90;;;;;;5131496;28;20494;-59
2023/05/31 07:36:02;;;;;;;12.38;6.15;;;14.70;99.90;;;;;;5112699;28;20067;-60
2023/05/31 07:38:28;;;;;;;14.35;6.60;;;14.70;99.90;;;;;;5131419;28;20582;-60
2023/05/31 07:40:53;;;;;;;11.18;6.47;;;14.70;99.90;;;;;;5131580;28;20142;-60
2023/05/31 07:43:21;;;;;;;12.43;6.95;;;14.80;99.90;;;;;;5131154;28;20075;-60
2023/05/31 07:45:48;;;;;;;15.38;6.75;;;14.80;99.90;;;;;;5131081;28;20039;-59
2023/05/31 07:48:13;;;;;;;10.80;6.55;;;15.00;99.90;;;;;;5130757;28;20035;-60
2023/05/31 07:50:39;;;;;;;17.77;6.78;;;15.00;99.90;;;;;;5130892;28;20040;-59
2023/05/31 07:53:05;;;;;;;14.27;6.43;;;15.00;99.90;;;;;;5130815;28;20055;-60
2023/05/31 07:55:31;;;;;;;13.02;6.28;;;15.00;99.90;;;;;;5131094;28;20043;-57
2023/05/31 07:57:56;;;;;;;15.27;7.63;;;15.10;99.90;;;;;;5131049;28;20035;-59
2023/05/31 08:00:23;;;;;;;13.20;7.22;;;15.20;99.90;;;;;;5131286;28;20039;-59
2023/05/31 08:02:49;;;;;;;11.02;6.53;;;15.30;99.90;;;;;;5130915;28;20043;-59
2023/05/31 08:05:15;;;;;;;10.98;6.88;;;15.30;99.90;;;;;;5130699;28;20034;-59
2023/05/31 08:07:41;;;;;;;10.70;6.20;;;15.40;99.90;;;;;;5130674;28;20066;-59
2023/05/31 08:10:07;;;;;;;13.30;7.22;;;15.60;99.90;;;;;;5130432;28;20064;-58
2023/05/31 08:12:33;;;;;;;12.73;6.30;;;15.60;99.90;;;;;;5112154;28;20492;-58
2023/05/31 08:14:58;;;;;;;11.23;5.97;;;15.70;99.90;;;;;;5131648;27;20039;-60
2023/05/31 08:17:25;;;;;;;11.55;6.15;;;15.70;99.90;;;;;;5133780;27;20070;-58
2023/05/31 08:19:51;;;;;;;12.60;6.18;;;15.80;99.90;;;;;;5133379;27;20111;-60
2023/05/31 08:22:16;;;;;;;12.05;6.28;;;16.00;99.90;;;;;;5134066;27;20031;-58
2023/05/31 08:24:42;;;;;;;10.88;5.55;;;16.10;99.90;;;;;;5133640;27;20039;-59
2023/05/31 08:27:08;;;;;;;9.52;5.32;;;16.10;99.90;;;;;;5133194;27;20031;-61
2023/05/31 08:29:34;;;;;;;11.80;5.97;;;16.20;99.90;;;;;;5131426;27;20041;-60
2023/05/31 08:32:00;;;;;;;13.80;6.53;;;16.30;99.90;;;;;;5128093;27;20043;-60
2023/05/31 08:34:27;;;;;;;11.82;6.45;;;16.30;99.90;;;;;;5125283;27;20027;-59
2023/05/31 08:36:53;;;;;;;11.75;6.07;;;16.40;99.90;;;;;;5127751;27;20039;-60
2023/05/31 08:39:18;;;;;;;11.30;5.70;;;16.50;99.90;;;;;;5130546;27;20119;-58
2023/05/31 08:41:58;;;;;;;13.52;5.72;;;16.50;99.90;;;;;;5127132;27;20031;-58
2023/05/31 08:44:24;;;;;;;9.20;5.47;;;16.60;99.90;;;;;;5124207;27;20067;-59
2023/05/31 08:46:50;;;;;;;12.80;6.22;;;16.70;99.90;;;;;;5121717;27;20453;-60
2023/05/31 08:49:17;;;;;;;12.60;5.55;;;16.80;99.90;;;;;;5128630;27;20031;-60
2023/05/31 08:51:45;;;;;;;9.60;5.63;;;16.90;99.90;;;;;;5132179;27;20047;-59
2023/05/31 08:54:12;;;;;;;8.77;4.80;;;17.00;99.90;;;;;;5131920;27;20057;-59
2023/05/31 08:56:39;;;;;;;10.38;5.30;;;17.10;99.90;;;;;;5113363;27;20077;-58
2023/05/31 08:59:09;;;;;;;10.90;5.40;;;17.20;99.90;;;;;;5133072;27;20051;-59
2023/05/31 09:01:37;;;;;;;8.65;5.20;;;17.30;99.90;;;;;;5132443;27;20039;-59
2023/05/31 09:04:07;;;;;;;9.63;4.85;;;17.50;99.90;;;;;;5131927;27;20075;-59
2023/05/31 09:06:34;;;;;;;12.65;5.40;;;17.60;99.90;;;;;;5133644;27;20363;-58
2023/05/31 09:09:00;;;;;;;8.98;4.68;;;17.80;99.90;;;;;;5115105;27;20079;-60
2023/05/31 09:11:27;;;;;;;16.38;5.60;;;18.00;99.90;;;;;;5133735;27;20425;-58
2023/05/31 09:13:53;;;;;;;11.00;5.13;;;18.20;99.90;;;;;;5133607;27;20058;-58
2023/05/31 09:16:25;;;;;;;12.55;4.88;;;18.30;99.90;;;;;;5133670;27;20068;-59
2023/05/31 09:19:01;;;;;;;9.00;4.95;;;18.50;99.90;;;;;;5133619;27;20070;-59
2023/05/31 09:21:26;;;;;;;14.88;5.32;;;18.70;99.90;;;;;;5133487;27;20039;-59
2023/05/31 09:23:56;;;;;;;10.00;4.53;;;18.90;99.90;;;;;;5132497;27;20098;-59
2023/05/31 09:26:23;;;;;;;8.73;4.97;;;19.10;99.90;;;;;;5133044;27;20038;-58
2023/05/31 09:28:51;;;;;;;12.60;4.43;;;19.20;99.90;;;;;;5133382;27;20601;-59
2023/05/31 09:31:17;;;;;;;7.93;4.28;;;19.30;99.90;;;;;;5133327;27;20168;-59
2023/05/31 09:33:45;;;;;;;10.40;4.88;;;19.40;99.90;;;;;;5133054;27;20397;-58
2023/05/31 09:36:12;;;;;;;11.90;5.07;;;19.40;99.90;;;;;;5133343;27;20023;-58
2023/05/31 09:38:39;;;;;;;12.23;5.00;;;19.50;99.90;;;;;;5132881;27;20261;-58
2023/05/31 09:41:20;;;;;;;10.65;5.20;;;19.60;99.90;;;;;;5114601;27;20039;-58
2023/05/31 09:43:48;;;;;;;12.48;4.80;;;19.60;99.90;;;;;;5133163;27;20039;-59
2023/05/31 09:46:21;;;;;;;10.23;4.43;;;19.70;99.90;;;;;;5132592;27;20077;-59
2023/05/31 09:49:00;;;;;;;10.75;4.80;;;19.80;99.90;;;;;;5132517;27;20045;-58
2023/05/31 09:51:26;;;;;;;10.23;4.50;;;20.00;99.90;;;;;;5132690;27;20096;-58
2023/05/31 09:53:55;;;;;;;12.00;5.38;;;20.10;99.90;;;;;;5132155;27;20043;-59
2023/05/31 09:56:22;;;;;;;9.95;4.72;;;20.30;99.90;;;;;;5132696;27;20039;-58
2023/05/31 09:58:49;;;;;;;13.15;4.63;;;20.30;99.90;;;;;;5131770;27;20043;-59
2023/05/31 10:01:19;;;;;;;10.75;5.10;;;20.30;99.90;;;;;;5132758;27;20035;-57
2023/05/31 10:03:46;;;;;;;14.05;5.10;;;20.30;99.90;;;;;;5132750;27;20460;-58
2023/05/31 10:06:14;;;;;;;11.35;4.47;;;20.40;99.90;;;;;;5132719;27;20072;-58
2023/05/31 10:08:41;;;;;;;10.82;5.00;;;20.50;99.90;;;;;;5132293;27;20045;-59
2023/05/31 10:11:08;;;;;;;10.10;4.30;;;20.50;99.90;;;;;;5132732;27;20089;-59
2023/05/31 10:13:34;;;;;;;11.43;4.18;;;20.50;99.90;;;;;;5132105;27;20043;-58
2023/05/31 10:16:05;;;;;;;7.75;4.63;;;20.50;99.90;;;;;;5132330;27;20031;-58
2023/05/31 10:18:33;;;;;;;11.45;4.47;;;20.60;99.90;;;;;;5132391;27;20031;-58
2023/05/31 10:21:23;;;;;;;12.02;4.30;;;20.70;99.90;;;;;;5132104;27;20035;-58
2023/05/31 10:23:55;;;;;;;9.52;4.57;;;20.70;99.90;;;;;;5122660;27;20107;-58
2023/05/31 10:26:22;;;;;;;12.82;4.90;;;20.80;99.90;;;;;;5132379;27;20043;-58
2023/05/31 10:29:01;;;;;;;9.38;3.83;;;21.00;99.90;;;;;;5132183;27;20046;-58
2023/05/31 10:31:33;;;;;;;9.05;4.38;;;21.00;99.90;;;;;;5131930;27;20046;-58
2023/05/31 10:34:13;;;;;;;9.27;4.10;;;21.10;99.90;;;;;;5132187;27;20110;-58
2023/05/31 10:36:39;;;;;;;7.30;3.97;;;21.20;99.90;;;;;;5131176;27;20031;-58
2023/05/31 10:39:19;;;;;;;10.80;4.20;;;21.30;99.90;;;;;;5131089;27;20042;-58
2023/05/31 10:41:52;;;;;;;8.82;4.28;;;21.30;99.90;;;;;;5132170;27;20043;-59
2023/05/31 10:44:28;;;;;;;8.17;4.53;;;21.40;99.90;;;;;;5131963;27;20046;-58
2023/05/31 10:47:01;;;;;;;10.15;4.20;;;21.40;99.90;;;;;;5113649;27;20289;-58
2023/05/31 10:49:30;;;;;;;9.48;3.97;;;21.50;99.90;;;;;;5131917;27;20110;-57
2023/05/31 10:52:04;;;;;;;7.70;3.80;;;21.50;99.90;;;;;;5131255;27;20464;-59
2023/05/31 10:54:32;;;;;;;7.93;3.47;;;21.60;99.90;;;;;;5131885;27;20534;-59
2023/05/31 10:57:01;;;;;;;10.38;4.10;;;21.60;99.90;;;;;;5131997;27;20031;-58
2023/05/31 10:59:27;;;;;;;7.15;3.22;;;21.60;99.90;;;;;;5096265;28;20095;-59
2023/05/31 11:01:54;;;;;;;8.57;4.63;;;21.60;99.90;;;;;;5132079;28;20493;-59
2023/05/31 11:04:23;;;;;;;10.57;4.00;;;21.70;99.90;;;;;;5131732;28;20035;-59
2023/05/31 11:06:54;;;;;;;9.20;4.30;;;21.80;99.90;;;;;;5131773;28;20109;-59
2023/05/31 11:09:20;;;;;;;9.10;4.20;;;22.00;99.90;;;;;;5131906;28;20058;-59
2023/05/31 11:11:48;;;;;;;8.60;3.90;;;22.20;99.90;;;;;;5131532;28;20110;-59
2023/05/31 11:14:31;;;;;;;9.00;4.07;;;22.30;99.90;;;;;;5113295;28;20059;-59
2023/05/31 11:17:03;;;;;;;12.95;4.25;;;22.40;99.90;;;;;;5131629;28;20550;-60
2023/05/31 11:19:30;;;;;;;12.32;3.80;;;22.40;99.90;;;;;;5131488;28;20043;-59
2023/05/31 11:22:07;;;;;;;7.32;3.88;;;22.40;99.90;;;;;;5130793;28;20039;-59
2023/05/31 11:24:47;;;;;;;9.57;3.85;;;22.60;99.90;;;;;;5131409;28;20062;-59
2023/05/31 11:27:13;;;;;;;8.88;3.70;;;22.70;99.90;;;;;;5131499;28;20106;-58
2023/05/31 11:29:48;;;;;;;10.45;4.38;;;22.90;99.90;;;;;;5131454;28;20046;-59
2023/05/31 11:32:15;;;;;;;8.95;3.80;;;23.00;99.90;;;;;;5131533;28;20031;-59
2023/05/31 11:34:50;;;;;;;8.68;3.95;;;23.10;99.90;;;;;;5131569;28;20058;-60
2023/05/31 11:37:16;;;;;;;9.70;3.90;;;23.30;99.90;;;;;;5131498;28;20043;-59
2023/05/31 11:39:45;;;;;;;10.13;3.63;;;23.40;99.90;;;;;;5130185;28;20042;-58
2023/05/31 11:42:12;;;;;;;6.97;3.40;;;23.40;99.90;;;;;;5131197;28;20043;-58
2023/05/31 11:44:43;;;;;;;7.88;3.50;;;23.40;99.90;;;;;;5131000;28;20438;-59
2023/05/31 11:47:41;;;;;;;7.20;3.38;;;23.50;99.90;;;;;;5131200;28;20038;-59
2023/05/31 11:50:07;;;;;;;7.18;3.22;;;23.60;99.40;;;;;;5132268;27;20068;-58
2023/05/31 11:52:32;;;;;;;6.32;2.92;;;23.70;99.90;;;;;;5134684;27;20038;-59
2023/05/31 11:55:05;;;;;;;7.55;2.83;;;23.80;99.90;;;;;;5135164;27;20031;-60
2023/05/31 11:57:39;;;;;;;8.80;3.13;;;23.80;99.20;;;;;;5135135;27;20451;-60
2023/05/31 12:00:10;;;;;;;7.00;2.95;;;24.00;99.90;;;;;;5134642;27;20125;-60
2023/05/31 12:02:36;;;;;;;8.40;3.92;;;24.20;99.60;;;;;;5117725;27;20043;-59
2023/05/31 12:05:03;;;;;;;8.18;2.70;;;24.30;99.40;;;;;;5116035;27;20039;-59
2023/05/31 12:07:29;;;;;;;8.40;3.00;;;24.40;99.60;;;;;;5135004;27;20113;-58
2023/05/31 12:09:55;;;;;;;10.52;3.25;;;24.60;99.40;;;;;;5135166;27;20123;-60
2023/05/31 12:12:20;;;;;;;9.00;2.85;;;24.80;99.10;;;;;;5134571;27;20114;-58
2023/05/31 12:14:51;;;;;;;8.13;3.30;;;25.00;99.20;;;;;;5135006;27;20045;-58
2023/05/31 12:17:16;;;;;;;11.65;3.63;;;25.00;98.90;;;;;;5134574;27;20061;-59
2023/05/31 12:19:47;;;;;;;7.60;3.08;;;24.90;98.80;;;;;;5133689;27;20047;-59
2023/05/31 12:22:13;;;;;;;8.52;3.42;;;25.00;98.90;;;;;;5134394;27;20050;-59
2023/05/31 12:24:51;;;;;;;11.40;4.13;;;25.10;99.20;;;;;;5134756;27;20261;-59
2023/05/31 12:27:21;;;;;;;10.23;3.45;;;25.10;99.30;;;;;;5134351;27;20039;-59
2023/05/31 12:29:47;;;;;;;9.13;3.50;;;25.10;99.60;;;;;;5134778;27;20099;-59
2023/05/31 12:32:13;;;;;;;10.75;4.00;;;24.90;99.80;;;;;;5134540;27;20030;-59
2023/05/31 12:34:39;;;;;;;8.50;3.42;;;24.90;99.90;;;;;;5134324;27;20023;-59
2023/05/31 12:37:10;;;;;;;10.88;3.75;;;25.00;99.90;;;;;;5134049;27;20027;-59
2023/05/31 12:39:40;;;;;;;9.88;3.92;;;25.10;99.90;;;;;;5134403;27;20031;-60
2023/05/31 12:42:06;;;;;;;8.88;3.75;;;25.20;99.90;;;;;;5134403;27;20114;-59